sensor_id;sensor_type;location;lat;lon;timestamp;temperature;humidity
74617;DHT22;63123;50.906;4.198;2023-07-16T00:02:10;21.30;65.60
74617;DHT22;63123;50.906;4.198;2023-07-16T00:04:35;21.30;65.50
74617;DHT22;63123;50.906;4.198;2023-07-16T00:07:01;21.20;65.50
74617;DHT22;63123;50.906;4.198;2023-07-16T00:09:27;21.20;65.50
74617;DHT22;63123;50.906;4.198;2023-07-16T00:11:53;21.20;65.50
74617;DHT22;63123;50.906;4.198;2023-07-16T00:14:19;21.20;65.50
74617;DHT22;63123;50.906;4.198;2023-07-16T00:16:44;21.20;65.50
74617;DHT22;63123;50.906;4.198;2023-07-16T00:19:11;21.30;65.50
74617;DHT22;63123;50.906;4.198;2023-07-16T00:21:37;21.30;65.60
74617;DHT22;63123;50.906;4.198;2023-07-16T00:24:03;21.20;65.50
74617;DHT22;63123;50.906;4.198;2023-07-16T00:26:29;21.30;65.50
74617;DHT22;63123;50.906;4.198;2023-07-16T00:28:54;21.20;65.50
74617;DHT22;63123;50.906;4.198;2023-07-16T00:31:20;21.20;65.50
74617;DHT22;63123;50.906;4.198;2023-07-16T00:33:45;21.20;65.40
74617;DHT22;63123;50.906;4.198;2023-07-16T00:36:11;21.20;65.50
74617;DHT22;63123;50.906;4.198;2023-07-16T00:38:37;21.20;65.40
74617;DHT22;63123;50.906;4.198;2023-07-16T00:41:02;21.30;65.50
74617;DHT22;63123;50.906;4.198;2023-07-16T00:43:28;21.30;65.60
74617;DHT22;63123;50.906;4.198;2023-07-16T00:45:53;21.20;65.50
74617;DHT22;63123;50.906;4.198;2023-07-16T00:48:19;21.30;65.50
74617;DHT22;63123;50.906;4.198;2023-07-16T00:50:45;21.30;65.50
74617;DHT22;63123;50.906;4.198;2023-07-16T00:53:12;21.30;65.50
74617;DHT22;63123;50.906;4.198;2023-07-16T00:55:38;21.20;65.50
74617;DHT22;63123;50.906;4.198;2023-07-16T00:58:07;21.20;65.50
74617;DHT22;63123;50.906;4.198;2023-07-16T01:00:38;21.20;65.40
74617;DHT22;63123;50.906;4.198;2023-07-16T01:03:08;21.30;65.50
74617;DHT22;63123;50.906;4.198;2023-07-16T01:06:00;21.30;65.50
74617;DHT22;63123;50.906;4.198;2023-07-16T01:08:42;21.20;65.40
74617;DHT22;63123;50.906;4.198;2023-07-16T01:11:10;21.20;65.40
74617;DHT22;63123;50.906;4.198;2023-07-16T01:13:36;21.20;65.40
74617;DHT22;63123;50.906;4.198;2023-07-16T01:16:02;21.20;65.40
74617;DHT22;63123;50.906;4.198;2023-07-16T01:18:27;21.20;65.40
74617;DHT22;63123;50.906;4.198;2023-07-16T01:20:53;21.20;65.40
74617;DHT22;63123;50.906;4.198;2023-07-16T01:26:15;21.20;65.40
74617;DHT22;63123;50.906;4.198;2023-07-16T01:31:17;21.30;65.50
74617;DHT22;63123;50.906;4.198;2023-07-16T01:33:43;21.20;65.40
74617;DHT22;63123;50.906;4.198;2023-07-16T01:36:09;21.20;65.50
74617;DHT22;63123;50.906;4.198;2023-07-16T01:38:36;21.20;65.40
74617;DHT22;63123;50.906;4.198;2023-07-16T01:41:02;21.20;65.40
74617;DHT22;63123;50.906;4.198;2023-07-16T01:43:28;21.20;65.40
74617;DHT22;63123;50.906;4.198;2023-07-16T01:45:53;21.20;66.00
74617;DHT22;63123;50.906;4.198;2023-07-16T01:48:34;21.20;65.40
74617;DHT22;63123;50.906;4.198;2023-07-16T01:51:01;21.30;65.40
74617;DHT22;63123;50.906;4.198;2023-07-16T01:53:26;21.30;65.40
74617;DHT22;63123;50.906;4.198;2023-07-16T01:55:52;21.20;65.30
74617;DHT22;63123;50.906;4.198;2023-07-16T01:58:18;21.20;65.30
74617;DHT22;63123;50.906;4.198;2023-07-16T02:00:43;21.20;65.90
74617;DHT22;63123;50.906;4.198;2023-07-16T02:03:09;21.30;65.30
74617;DHT22;63123;50.906;4.198;2023-07-16T02:05:35;21.30;65.30
74617;DHT22;63123;50.906;4.198;2023-07-16T02:08:00;21.20;65.30
74617;DHT22;63123;50.906;4.198;2023-07-16T02:10:26;21.20;65.20
74617;DHT22;63123;50.906;4.198;2023-07-16T02:12:51;21.30;65.30
74617;DHT22;63123;50.906;4.198;2023-07-16T02:15:17;21.20;65.30
74617;DHT22;63123;50.906;4.198;2023-07-16T02:17:44;21.30;65.30
74617;DHT22;63123;50.906;4.198;2023-07-16T02:20:10;21.30;65.30
74617;DHT22;63123;50.906;4.198;2023-07-16T02:22:39;21.20;65.20
74617;DHT22;63123;50.906;4.198;2023-07-16T02:25:05;21.20;65.20
74617;DHT22;63123;50.906;4.198;2023-07-16T02:27:31;21.20;65.20
74617;DHT22;63123;50.906;4.198;2023-07-16T02:29:57;21.20;65.20
74617;DHT22;63123;50.906;4.198;2023-07-16T02:32:22;21.20;65.20
74617;DHT22;63123;50.906;4.198;2023-07-16T02:34:48;21.20;65.20
74617;DHT22;63123;50.906;4.198;2023-07-16T02:37:14;21.20;65.20
74617;DHT22;63123;50.906;4.198;2023-07-16T02:39:42;21.20;65.10
74617;DHT22;63123;50.906;4.198;2023-07-16T02:42:07;21.20;65.10
74617;DHT22;63123;50.906;4.198;2023-07-16T02:44:34;21.20;65.10
74617;DHT22;63123;50.906;4.198;2023-07-16T02:46:59;21.20;65.10
74617;DHT22;63123;50.906;4.198;2023-07-16T02:49:25;21.20;65.00
74617;DHT22;63123;50.906;4.198;2023-07-16T02:51:51;21.20;65.10
74617;DHT22;63123;50.906;4.198;2023-07-16T02:54:16;21.20;65.10
74617;DHT22;63123;50.906;4.198;2023-07-16T02:56:42;21.20;65.00
74617;DHT22;63123;50.906;4.198;2023-07-16T02:59:07;21.20;65.00
74617;DHT22;63123;50.906;4.198;2023-07-16T03:01:33;21.20;65.00
74617;DHT22;63123;50.906;4.198;2023-07-16T03:03:58;21.20;65.60
74617;DHT22;63123;50.906;4.198;2023-07-16T03:06:24;21.20;65.00
74617;DHT22;63123;50.906;4.198;2023-07-16T03:08:50;21.20;65.00
74617;DHT22;63123;50.906;4.198;2023-07-16T03:11:15;21.20;65.50
74617;DHT22;63123;50.906;4.198;2023-07-16T03:13:41;21.20;64.90
74617;DHT22;63123;50.906;4.198;2023-07-16T03:16:06;21.20;65.00
74617;DHT22;63123;50.906;4.198;2023-07-16T03:18:32;21.20;64.90
74617;DHT22;63123;50.906;4.198;2023-07-16T03:20:58;21.20;65.00
74617;DHT22;63123;50.906;4.198;2023-07-16T03:23:24;21.20;64.90
74617;DHT22;63123;50.906;4.198;2023-07-16T03:25:50;21.20;65.00
74617;DHT22;63123;50.906;4.198;2023-07-16T03:28:16;21.20;64.80
74617;DHT22;63123;50.906;4.198;2023-07-16T03:30:47;21.20;64.80
74617;DHT22;63123;50.906;4.198;2023-07-16T03:33:12;21.20;65.40
74617;DHT22;63123;50.906;4.198;2023-07-16T03:35:38;21.20;64.80
74617;DHT22;63123;50.906;4.198;2023-07-16T03:38:03;21.20;64.80
74617;DHT22;63123;50.906;4.198;2023-07-16T03:40:30;21.20;65.40
74617;DHT22;63123;50.906;4.198;2023-07-16T03:42:55;21.20;64.70
74617;DHT22;63123;50.906;4.198;2023-07-16T03:45:21;21.20;64.70
74617;DHT22;63123;50.906;4.198;2023-07-16T03:47:47;21.20;64.80
74617;DHT22;63123;50.906;4.198;2023-07-16T03:50:12;21.20;64.80
74617;DHT22;63123;50.906;4.198;2023-07-16T03:52:38;21.20;64.80
74617;DHT22;63123;50.906;4.198;2023-07-16T03:55:04;21.20;64.70
74617;DHT22;63123;50.906;4.198;2023-07-16T03:57:29;21.20;64.70
74617;DHT22;63123;50.906;4.198;2023-07-16T03:59:55;21.20;64.70
74617;DHT22;63123;50.906;4.198;2023-07-16T04:02:21;21.20;64.70
74617;DHT22;63123;50.906;4.198;2023-07-16T04:04:46;21.20;64.60
74617;DHT22;63123;50.906;4.198;2023-07-16T04:07:12;21.20;64.60
74617;DHT22;63123;50.906;4.198;2023-07-16T04:09:39;21.20;64.70
74617;DHT22;63123;50.906;4.198;2023-07-16T04:12:06;21.20;64.60
74617;DHT22;63123;50.906;4.198;2023-07-16T04:14:32;21.20;64.60
74617;DHT22;63123;50.906;4.198;2023-07-16T04:16:57;21.20;64.60
74617;DHT22;63123;50.906;4.198;2023-07-16T04:19:23;21.20;64.60
74617;DHT22;63123;50.906;4.198;2023-07-16T04:21:49;21.20;64.60
74617;DHT22;63123;50.906;4.198;2023-07-16T04:24:14;21.20;64.60
74617;DHT22;63123;50.906;4.198;2023-07-16T04:26:40;21.20;64.50
74617;DHT22;63123;50.906;4.198;2023-07-16T04:29:05;21.20;64.50
74617;DHT22;63123;50.906;4.198;2023-07-16T04:31:31;21.20;64.50
74617;DHT22;63123;50.906;4.198;2023-07-16T04:33:57;21.20;64.50
74617;DHT22;63123;50.906;4.198;2023-07-16T04:36:22;21.20;64.50
74617;DHT22;63123;50.906;4.198;2023-07-16T04:38:48;21.20;64.50
74617;DHT22;63123;50.906;4.198;2023-07-16T04:41:13;21.20;64.50
74617;DHT22;63123;50.906;4.198;2023-07-16T04:43:39;21.20;64.50
74617;DHT22;63123;50.906;4.198;2023-07-16T04:46:05;21.20;64.50
74617;DHT22;63123;50.906;4.198;2023-07-16T04:48:30;21.20;64.50
74617;DHT22;63123;50.906;4.198;2023-07-16T04:50:56;21.20;64.40
74617;DHT22;63123;50.906;4.198;2023-07-16T04:53:22;21.20;64.50
74617;DHT22;63123;50.906;4.198;2023-07-16T04:55:48;21.30;64.50
74617;DHT22;63123;50.906;4.198;2023-07-16T04:58:15;21.20;64.50
74617;DHT22;63123;50.906;4.198;2023-07-16T05:00:41;21.20;64.50
74617;DHT22;63123;50.906;4.198;2023-07-16T05:03:06;21.20;64.40
74617;DHT22;63123;50.906;4.198;2023-07-16T05:05:32;21.20;64.50
74617;DHT22;63123;50.906;4.198;2023-07-16T05:07:58;21.20;64.50
74617;DHT22;63123;50.906;4.198;2023-07-16T05:10:24;21.20;64.40
74617;DHT22;63123;50.906;4.198;2023-07-16T05:12:49;21.20;64.40
74617;DHT22;63123;50.906;4.198;2023-07-16T05:15:15;21.20;64.50
74617;DHT22;63123;50.906;4.198;2023-07-16T05:17:41;21.20;64.40
74617;DHT22;63123;50.906;4.198;2023-07-16T05:20:07;21.20;64.40
74617;DHT22;63123;50.906;4.198;2023-07-16T05:22:34;21.20;64.40
74617;DHT22;63123;50.906;4.198;2023-07-16T05:25:00;21.20;64.30
74617;DHT22;63123;50.906;4.198;2023-07-16T05:27:26;21.20;64.40
74617;DHT22;63123;50.906;4.198;2023-07-16T05:29:52;21.20;64.40
74617;DHT22;63123;50.906;4.198;2023-07-16T05:32:17;21.20;64.40
74617;DHT22;63123;50.906;4.198;2023-07-16T05:34:43;21.20;64.40
74617;DHT22;63123;50.906;4.198;2023-07-16T05:37:08;21.30;64.40
74617;DHT22;63123;50.906;4.198;2023-07-16T05:39:34;21.20;64.40
74617;DHT22;63123;50.906;4.198;2023-07-16T05:42:00;21.20;64.30
74617;DHT22;63123;50.906;4.198;2023-07-16T05:44:28;21.20;64.30
74617;DHT22;63123;50.906;4.198;2023-07-16T05:46:54;21.20;64.30
74617;DHT22;63123;50.906;4.198;2023-07-16T05:49:19;21.20;64.30
74617;DHT22;63123;50.906;4.198;2023-07-16T05:51:45;21.20;64.40
74617;DHT22;63123;50.906;4.198;2023-07-16T05:54:11;21.30;64.40
74617;DHT22;63123;50.906;4.198;2023-07-16T05:56:36;21.20;64.30
74617;DHT22;63123;50.906;4.198;2023-07-16T05:59:02;21.20;64.30
74617;DHT22;63123;50.906;4.198;2023-07-16T06:01:27;21.20;64.20
74617;DHT22;63123;50.906;4.198;2023-07-16T06:03:53;21.20;64.20
74617;DHT22;63123;50.906;4.198;2023-07-16T06:06:19;21.20;64.30
74617;DHT22;63123;50.906;4.198;2023-07-16T06:08:45;21.20;64.30
74617;DHT22;63123;50.906;4.198;2023-07-16T06:11:12;21.20;64.30
74617;DHT22;63123;50.906;4.198;2023-07-16T06:13:37;21.20;64.30
74617;DHT22;63123;50.906;4.198;2023-07-16T06:16:03;21.20;64.30
74617;DHT22;63123;50.906;4.198;2023-07-16T06:18:29;21.20;64.20
74617;DHT22;63123;50.906;4.198;2023-07-16T06:20:54;21.20;64.30
74617;DHT22;63123;50.906;4.198;2023-07-16T06:23:20;21.20;64.30
74617;DHT22;63123;50.906;4.198;2023-07-16T06:25:46;21.20;64.30
74617;DHT22;63123;50.906;4.198;2023-07-16T06:28:15;21.20;64.30
74617;DHT22;63123;50.906;4.198;2023-07-16T06:30:41;21.20;64.30
74617;DHT22;63123;50.906;4.198;2023-07-16T06:33:06;21.20;64.30
74617;DHT22;63123;50.906;4.198;2023-07-16T06:35:32;21.20;64.20
74617;DHT22;63123;50.906;4.198;2023-07-16T06:37:58;21.20;64.20
74617;DHT22;63123;50.906;4.198;2023-07-16T06:40:24;21.20;64.20
74617;DHT22;63123;50.906;4.198;2023-07-16T06:42:50;21.20;64.20
74617;DHT22;63123;50.906;4.198;2023-07-16T06:45:17;21.20;64.20
74617;DHT22;63123;50.906;4.198;2023-07-16T06:47:43;21.20;64.20
74617;DHT22;63123;50.906;4.198;2023-07-16T06:50:09;21.20;64.30
74617;DHT22;63123;50.906;4.198;2023-07-16T06:52:35;21.20;64.20
74617;DHT22;63123;50.906;4.198;2023-07-16T06:55:00;21.20;64.20
74617;DHT22;63123;50.906;4.198;2023-07-16T06:57:26;21.20;64.20
74617;DHT22;63123;50.906;4.198;2023-07-16T06:59:51;21.20;64.20
74617;DHT22;63123;50.906;4.198;2023-07-16T07:02:18;21.20;64.20
74617;DHT22;63123;50.906;4.198;2023-07-16T07:04:44;21.20;64.20
74617;DHT22;63123;50.906;4.198;2023-07-16T07:07:09;21.20;64.20
74617;DHT22;63123;50.906;4.198;2023-07-16T07:09:35;21.20;64.20
74617;DHT22;63123;50.906;4.198;2023-07-16T07:12:01;21.20;64.20
74617;DHT22;63123;50.906;4.198;2023-07-16T07:14:26;21.20;64.20
74617;DHT22;63123;50.906;4.198;2023-07-16T07:16:52;21.30;64.20
74617;DHT22;63123;50.906;4.198;2023-07-16T07:19:18;21.20;64.20
74617;DHT22;63123;50.906;4.198;2023-07-16T07:21:43;21.20;64.10
74617;DHT22;63123;50.906;4.198;2023-07-16T07:24:09;21.20;64.10
74617;DHT22;63123;50.906;4.198;2023-07-16T07:26:34;21.20;64.10
74617;DHT22;63123;50.906;4.198;2023-07-16T07:29:00;21.20;64.70
74617;DHT22;63123;50.906;4.198;2023-07-16T07:31:26;21.20;64.10
74617;DHT22;63123;50.906;4.198;2023-07-16T07:33:51;21.20;64.10
74617;DHT22;63123;50.906;4.198;2023-07-16T07:36:19;21.20;64.10
74617;DHT22;63123;50.906;4.198;2023-07-16T07:38:44;21.20;64.10
74617;DHT22;63123;50.906;4.198;2023-07-16T07:41:10;21.20;64.10
74617;DHT22;63123;50.906;4.198;2023-07-16T07:43:36;21.20;64.00
74617;DHT22;63123;50.906;4.198;2023-07-16T07:46:01;21.20;64.10
74617;DHT22;63123;50.906;4.198;2023-07-16T07:48:28;21.20;64.00
74617;DHT22;63123;50.906;4.198;2023-07-16T07:50:54;21.20;64.00
74617;DHT22;63123;50.906;4.198;2023-07-16T07:53:19;21.20;64.00
74617;DHT22;63123;50.906;4.198;2023-07-16T07:55:45;21.20;64.00
74617;DHT22;63123;50.906;4.198;2023-07-16T07:58:11;21.20;63.90
74617;DHT22;63123;50.906;4.198;2023-07-16T08:00:37;21.20;63.90
74617;DHT22;63123;50.906;4.198;2023-07-16T08:03:03;21.20;63.90
74617;DHT22;63123;50.906;4.198;2023-07-16T08:05:29;21.20;63.90
74617;DHT22;63123;50.906;4.198;2023-07-16T08:07:54;21.30;63.90
74617;DHT22;63123;50.906;4.198;2023-07-16T08:10:21;21.30;63.90
74617;DHT22;63123;50.906;4.198;2023-07-16T08:12:48;21.20;63.80
74617;DHT22;63123;50.906;4.198;2023-07-16T08:15:14;21.20;63.80
74617;DHT22;63123;50.906;4.198;2023-07-16T08:17:44;21.20;63.80
74617;DHT22;63123;50.906;4.198;2023-07-16T08:20:11;21.20;64.30
74617;DHT22;63123;50.906;4.198;2023-07-16T08:22:37;21.20;63.80
74617;DHT22;63123;50.906;4.198;2023-07-16T08:25:04;21.20;63.80
74617;DHT22;63123;50.906;4.198;2023-07-16T08:27:30;21.30;63.80
74617;DHT22;63123;50.906;4.198;2023-07-16T08:29:56;21.20;63.80
74617;DHT22;63123;50.906;4.198;2023-07-16T08:32:22;21.20;63.70
74617;DHT22;63123;50.906;4.198;2023-07-16T08:34:48;21.20;63.80
74617;DHT22;63123;50.906;4.198;2023-07-16T08:37:14;21.20;63.80
74617;DHT22;63123;50.906;4.198;2023-07-16T08:39:39;21.20;63.70
74617;DHT22;63123;50.906;4.198;2023-07-16T08:42:05;21.20;63.60
74617;DHT22;63123;50.906;4.198;2023-07-16T08:44:31;21.20;63.70
74617;DHT22;63123;50.906;4.198;2023-07-16T08:46:58;21.20;63.60
74617;DHT22;63123;50.906;4.198;2023-07-16T08:49:25;21.20;63.60
74617;DHT22;63123;50.906;4.198;2023-07-16T08:51:54;21.20;63.60
74617;DHT22;63123;50.906;4.198;2023-07-16T08:54:22;21.30;63.70
74617;DHT22;63123;50.906;4.198;2023-07-16T08:56:48;21.30;63.70
74617;DHT22;63123;50.906;4.198;2023-07-16T08:59:17;21.20;63.60
74617;DHT22;63123;50.906;4.198;2023-07-16T09:01:43;21.20;63.60
74617;DHT22;63123;50.906;4.198;2023-07-16T09:04:09;21.30;63.60
74617;DHT22;63123;50.906;4.198;2023-07-16T09:06:35;21.20;63.60
74617;DHT22;63123;50.906;4.198;2023-07-16T09:09:01;21.20;63.60
74617;DHT22;63123;50.906;4.198;2023-07-16T09:11:26;21.20;63.60
74617;DHT22;63123;50.906;4.198;2023-07-16T09:13:52;21.30;63.70
74617;DHT22;63123;50.906;4.198;2023-07-16T09:16:18;21.30;63.60
74617;DHT22;63123;50.906;4.198;2023-07-16T09:18:44;21.30;63.60
74617;DHT22;63123;50.906;4.198;2023-07-16T09:21:10;21.30;63.60
74617;DHT22;63123;50.906;4.198;2023-07-16T09:23:36;21.20;63.60
74617;DHT22;63123;50.906;4.198;2023-07-16T09:26:03;21.30;63.50
74617;DHT22;63123;50.906;4.198;2023-07-16T09:28:30;21.30;63.60
74617;DHT22;63123;50.906;4.198;2023-07-16T09:31:03;21.20;63.50
74617;DHT22;63123;50.906;4.198;2023-07-16T09:33:31;21.30;63.50
74617;DHT22;63123;50.906;4.198;2023-07-16T09:35:57;21.20;63.50
74617;DHT22;63123;50.906;4.198;2023-07-16T09:38:23;21.20;63.50
74617;DHT22;63123;50.906;4.198;2023-07-16T09:40:52;21.30;63.60
74617;DHT22;63123;50.906;4.198;2023-07-16T09:43:17;21.20;63.60
74617;DHT22;63123;50.906;4.198;2023-07-16T09:45:43;21.30;63.60
74617;DHT22;63123;50.906;4.198;2023-07-16T09:48:09;21.30;63.50
74617;DHT22;63123;50.906;4.198;2023-07-16T09:50:36;21.30;63.50
74617;DHT22;63123;50.906;4.198;2023-07-16T09:53:04;21.30;64.20
74617;DHT22;63123;50.906;4.198;2023-07-16T09:55:35;21.30;63.50
74617;DHT22;63123;50.906;4.198;2023-07-16T09:58:03;21.30;63.50
74617;DHT22;63123;50.906;4.198;2023-07-16T10:00:32;21.20;63.50
74617;DHT22;63123;50.906;4.198;2023-07-16T10:02:59;21.30;63.50
74617;DHT22;63123;50.906;4.198;2023-07-16T10:05:27;21.30;63.50
74617;DHT22;63123;50.906;4.198;2023-07-16T10:08:00;21.30;63.60
74617;DHT22;63123;50.906;4.198;2023-07-16T10:10:40;21.30;63.60
74617;DHT22;63123;50.906;4.198;2023-07-16T10:13:07;21.30;63.50
74617;DHT22;63123;50.906;4.198;2023-07-16T10:15:32;21.30;63.60
74617;DHT22;63123;50.906;4.198;2023-07-16T10:17:58;21.20;63.50
74617;DHT22;63123;50.906;4.198;2023-07-16T10:20:36;21.30;63.50
74617;DHT22;63123;50.906;4.198;2023-07-16T10:23:15;21.30;63.40
74617;DHT22;63123;50.906;4.198;2023-07-16T10:26:00;21.30;63.50
74617;DHT22;63123;50.906;4.198;2023-07-16T10:28:26;21.20;63.40
74617;DHT22;63123;50.906;4.198;2023-07-16T10:30:52;21.30;63.50
74617;DHT22;63123;50.906;4.198;2023-07-16T10:33:18;21.30;63.60
74617;DHT22;63123;50.906;4.198;2023-07-16T10:35:45;21.30;63.50
74617;DHT22;63123;50.906;4.198;2023-07-16T10:38:11;21.30;63.60
74617;DHT22;63123;50.906;4.198;2023-07-16T10:40:44;21.30;63.60
74617;DHT22;63123;50.906;4.198;2023-07-16T10:43:10;21.30;63.50
74617;DHT22;63123;50.906;4.198;2023-07-16T10:45:36;21.20;63.50
74617;DHT22;63123;50.906;4.198;2023-07-16T10:48:02;21.30;63.50
74617;DHT22;63123;50.906;4.198;2023-07-16T10:50:27;21.30;63.50
74617;DHT22;63123;50.906;4.198;2023-07-16T10:52:56;21.30;63.50
74617;DHT22;63123;50.906;4.198;2023-07-16T10:55:23;21.30;63.50
74617;DHT22;63123;50.906;4.198;2023-07-16T10:57:50;21.30;63.50
74617;DHT22;63123;50.906;4.198;2023-07-16T11:00:16;21.30;63.50
74617;DHT22;63123;50.906;4.198;2023-07-16T11:02:42;21.30;63.50
74617;DHT22;63123;50.906;4.198;2023-07-16T11:05:12;21.30;63.50
74617;DHT22;63123;50.906;4.198;2023-07-16T11:07:46;21.30;63.50
74617;DHT22;63123;50.906;4.198;2023-07-16T11:10:12;21.30;63.60
74617;DHT22;63123;50.906;4.198;2023-07-16T11:12:41;21.30;63.50
74617;DHT22;63123;50.906;4.198;2023-07-16T11:15:07;21.30;63.50
74617;DHT22;63123;50.906;4.198;2023-07-16T11:17:33;21.30;63.50
74617;DHT22;63123;50.906;4.198;2023-07-16T11:20:00;21.30;63.50
74617;DHT22;63123;50.906;4.198;2023-07-16T11:22:28;21.30;63.50
74617;DHT22;63123;50.906;4.198;2023-07-16T11:24:54;21.30;63.50
74617;DHT22;63123;50.906;4.198;2023-07-16T11:27:22;21.30;63.50
74617;DHT22;63123;50.906;4.198;2023-07-16T11:29:50;21.30;63.50
74617;DHT22;63123;50.906;4.198;2023-07-16T11:32:30;21.30;63.50
74617;DHT22;63123;50.906;4.198;2023-07-16T11:34:57;21.30;63.50
74617;DHT22;63123;50.906;4.198;2023-07-16T11:37:28;21.30;63.60
74617;DHT22;63123;50.906;4.198;2023-07-16T11:39:58;21.30;63.60
74617;DHT22;63123;50.906;4.198;2023-07-16T11:42:28;21.30;63.60
74617;DHT22;63123;50.906;4.198;2023-07-16T11:44:53;21.30;63.60
74617;DHT22;63123;50.906;4.198;2023-07-16T11:47:20;21.30;63.60
74617;DHT22;63123;50.906;4.198;2023-07-16T11:49:46;21.30;63.60
74617;DHT22;63123;50.906;4.198;2023-07-16T11:52:11;21.30;63.60
74617;DHT22;63123;50.906;4.198;2023-07-16T11:54:37;21.30;63.60
74617;DHT22;63123;50.906;4.198;2023-07-16T11:57:03;21.30;63.60
74617;DHT22;63123;50.906;4.198;2023-07-16T11:59:29;21.30;63.70
74617;DHT22;63123;50.906;4.198;2023-07-16T12:01:54;21.30;63.60
74617;DHT22;63123;50.906;4.198;2023-07-16T12:04:20;21.30;63.70
74617;DHT22;63123;50.906;4.198;2023-07-16T12:06:46;21.30;63.70
74617;DHT22;63123;50.906;4.198;2023-07-16T12:09:11;21.30;63.70
74617;DHT22;63123;50.906;4.198;2023-07-16T12:11:38;21.30;63.60
74617;DHT22;63123;50.906;4.198;2023-07-16T12:14:05;21.30;63.60
74617;DHT22;63123;50.906;4.198;2023-07-16T12:16:30;21.30;63.60
74617;DHT22;63123;50.906;4.198;2023-07-16T12:18:56;21.30;63.60
74617;DHT22;63123;50.906;4.198;2023-07-16T12:21:22;21.30;63.70
74617;DHT22;63123;50.906;4.198;2023-07-16T12:23:47;21.30;63.60
74617;DHT22;63123;50.906;4.198;2023-07-16T12:26:13;21.30;63.70
74617;DHT22;63123;50.906;4.198;2023-07-16T12:28:39;21.30;63.70
74617;DHT22;63123;50.906;4.198;2023-07-16T12:31:05;21.30;63.40
74617;DHT22;63123;50.906;4.198;2023-07-16T12:33:31;21.30;63.50
74617;DHT22;63123;50.906;4.198;2023-07-16T12:35:56;21.30;63.60
74617;DHT22;63123;50.906;4.198;2023-07-16T12:38:22;21.30;63.60
74617;DHT22;63123;50.906;4.198;2023-07-16T12:40:48;21.30;63.50
74617;DHT22;63123;50.906;4.198;2023-07-16T12:43:14;21.30;63.60
74617;DHT22;63123;50.906;4.198;2023-07-16T12:45:39;21.40;63.60
74617;DHT22;63123;50.906;4.198;2023-07-16T12:48:05;21.40;63.50
74617;DHT22;63123;50.906;4.198;2023-07-16T12:50:31;21.40;63.50
74617;DHT22;63123;50.906;4.198;2023-07-16T12:52:56;21.30;63.60
74617;DHT22;63123;50.906;4.198;2023-07-16T12:55:22;21.30;63.50
74617;DHT22;63123;50.906;4.198;2023-07-16T12:57:49;21.30;63.60
74617;DHT22;63123;50.906;4.198;2023-07-16T13:00:14;21.30;63.50
74617;DHT22;63123;50.906;4.198;2023-07-16T13:02:40;21.30;63.50
74617;DHT22;63123;50.906;4.198;2023-07-16T13:05:06;21.30;63.60
74617;DHT22;63123;50.906;4.198;2023-07-16T13:07:31;21.30;63.50
74617;DHT22;63123;50.906;4.198;2023-07-16T13:09:57;21.30;63.60
74617;DHT22;63123;50.906;4.198;2023-07-16T13:12:23;21.40;63.60
74617;DHT22;63123;50.906;4.198;2023-07-16T13:14:48;21.30;63.50
74617;DHT22;63123;50.906;4.198;2023-07-16T13:17:14;21.30;63.50
74617;DHT22;63123;50.906;4.198;2023-07-16T13:19:41;21.30;63.50
74617;DHT22;63123;50.906;4.198;2023-07-16T13:22:07;21.30;63.50
74617;DHT22;63123;50.906;4.198;2023-07-16T13:24:33;21.30;63.50
74617;DHT22;63123;50.906;4.198;2023-07-16T13:26:58;21.30;63.50
74617;DHT22;63123;50.906;4.198;2023-07-16T13:29:24;21.30;63.50
74617;DHT22;63123;50.906;4.198;2023-07-16T13:31:50;21.30;63.50
74617;DHT22;63123;50.906;4.198;2023-07-16T13:34:15;21.30;63.50
74617;DHT22;63123;50.906;4.198;2023-07-16T13:36:41;21.30;63.50
74617;DHT22;63123;50.906;4.198;2023-07-16T13:39:06;21.30;63.50
74617;DHT22;63123;50.906;4.198;2023-07-16T13:41:32;21.30;63.40
74617;DHT22;63123;50.906;4.198;2023-07-16T13:43:58;21.30;63.40
74617;DHT22;63123;50.906;4.198;2023-07-16T13:46:23;21.30;63.50
74617;DHT22;63123;50.906;4.198;2023-07-16T13:48:49;21.30;63.40
74617;DHT22;63123;50.906;4.198;2023-07-16T13:51:15;21.30;63.30
74617;DHT22;63123;50.906;4.198;2023-07-16T13:53:40;21.30;63.40
74617;DHT22;63123;50.906;4.198;2023-07-16T13:56:06;21.30;63.40
74617;DHT22;63123;50.906;4.198;2023-07-16T13:58:34;21.30;63.40
74617;DHT22;63123;50.906;4.198;2023-07-16T14:01:00;21.30;63.30
74617;DHT22;63123;50.906;4.198;2023-07-16T14:03:25;21.30;63.40
74617;DHT22;63123;50.906;4.198;2023-07-16T14:05:51;21.30;63.90
74617;DHT22;63123;50.906;4.198;2023-07-16T14:08:17;21.30;63.30
74617;DHT22;63123;50.906;4.198;2023-07-16T14:10:43;21.30;63.30
74617;DHT22;63123;50.906;4.198;2023-07-16T14:13:09;21.30;63.10
74617;DHT22;63123;50.906;4.198;2023-07-16T14:15:35;21.30;63.30
74617;DHT22;63123;50.906;4.198;2023-07-16T14:18:00;21.30;63.30
74617;DHT22;63123;50.906;4.198;2023-07-16T14:20:26;21.30;63.30
74617;DHT22;63123;50.906;4.198;2023-07-16T14:22:51;21.30;63.20
74617;DHT22;63123;50.906;4.198;2023-07-16T14:25:17;21.30;63.20
74617;DHT22;63123;50.906;4.198;2023-07-16T14:27:43;21.30;63.20
74617;DHT22;63123;50.906;4.198;2023-07-16T14:30:09;21.30;63.10
74617;DHT22;63123;50.906;4.198;2023-07-16T14:32:36;21.30;63.00
74617;DHT22;63123;50.906;4.198;2023-07-16T14:35:02;21.30;63.10
74617;DHT22;63123;50.906;4.198;2023-07-16T14:37:29;21.30;63.00
74617;DHT22;63123;50.906;4.198;2023-07-16T14:39:54;21.30;63.00
74617;DHT22;63123;50.906;4.198;2023-07-16T14:42:20;21.30;63.00
74617;DHT22;63123;50.906;4.198;2023-07-16T14:44:45;21.30;62.90
74617;DHT22;63123;50.906;4.198;2023-07-16T14:47:11;21.30;62.90
74617;DHT22;63123;50.906;4.198;2023-07-16T14:49:37;21.30;63.00
74617;DHT22;63123;50.906;4.198;2023-07-16T14:52:03;21.30;62.80
74617;DHT22;63123;50.906;4.198;2023-07-16T14:54:29;21.30;62.90
74617;DHT22;63123;50.906;4.198;2023-07-16T14:56:54;21.30;62.90
74617;DHT22;63123;50.906;4.198;2023-07-16T14:59:20;21.30;62.90
74617;DHT22;63123;50.906;4.198;2023-07-16T15:01:46;21.30;62.70
74617;DHT22;63123;50.906;4.198;2023-07-16T15:04:11;21.30;62.70
74617;DHT22;63123;50.906;4.198;2023-07-16T15:06:37;21.30;62.70
74617;DHT22;63123;50.906;4.198;2023-07-16T15:09:03;21.30;62.70
74617;DHT22;63123;50.906;4.198;2023-07-16T15:11:29;21.30;62.70
74617;DHT22;63123;50.906;4.198;2023-07-16T15:13:55;21.30;62.60
74617;DHT22;63123;50.906;4.198;2023-07-16T15:16:20;21.30;62.60
74617;DHT22;63123;50.906;4.198;2023-07-16T15:18:46;21.30;62.70
74617;DHT22;63123;50.906;4.198;2023-07-16T15:21:11;21.30;62.60
74617;DHT22;63123;50.906;4.198;2023-07-16T15:23:37;21.30;62.60
74617;DHT22;63123;50.906;4.198;2023-07-16T15:26:05;21.30;62.60
74617;DHT22;63123;50.906;4.198;2023-07-16T15:28:37;21.30;62.60
74617;DHT22;63123;50.906;4.198;2023-07-16T15:31:03;21.30;62.50